Terminal Aerodrome Forecast
Issued by NWS Sterling, VA

Home | Current Version | Previous Version | Text Only | Print | Product List | Glossary On
Versions: 1 2 3 4 5 6 7 8 9 10 11 12 13 14 15
000
FTUS41 KLWX 212300 RRA
TAFCHO
TAF
KCHO 212347Z 2200/2224 00000KT P6SM SCT030 OVC050
     FM220300 00000KT 5SM BR BKN090
     FM220600 VRB03KT 2SM BR BKN090
     FM221200 00000KT 3SM BR BKN130
     FM221300 VRB04KT P6SM BKN130
     FM222100 36006KT P6SM VCTS SCT030 BKN060CB=

USA.gov is the U.S. government's official web portal to all federal, state and local government web resources and services.